モスクワ/シェレメーチエヴォ の空港の天気 - METARとTAF

シェレメーチエヴォ国際空港(モスクワ) ( UUEE / SVO ) - ロシア モスクワ
飛行場実況気象(Metar)
観測時間02/21 04:30 MSK (02/21 01:30 UTC)
風向・風速西南西 4m/s
視程10km以上
天気現象
全天の8割程度の雲 雲底高度 300m
気温1℃
湿度93%
気圧993hPa
METARUUEE 210130Z 24004MPS 9999 BKN010 01/00 Q0993 R24L/290051 R24C/290045 TEMPO 1500 SHSN BKN012CB
過去の天気等 Google飛行場航空写真 Wunderground天気予報

過去48時間のMETAR

飛行場予報(TAF)
発表時間: 2/21 01:59 MSK (2/20 22:59 UTC)
予報対象時間: 21日3時 MSK ~ 22日3時 MSK
風向・風速南西 7m/s 瞬間風速 14m/s
視程3100m
天気現象弱い雪
少しの雲 雲底高度 180m
全天を覆う雲 雲底高度 340m
21日3時 MSK ~ 21日7時 MSK に一時的に
視程1000m
天気現象しゅう雪
全天の4割程度の雲 雲底高度 120m
全天の8割程度の積乱雲 雲底高度 370m
21日3時 MSK ~ 21日5時 MSK に徐々に
風向・風速西 8m/s 瞬間風速 15m/s
21日12時 MSK ~ 22日3時 MSK に一時的に
視程1500m
天気現象しゅう雪 高い地吹雪
全天の4割程度の雲 雲底高度 120m
全天の8割程度の積乱雲 雲底高度 370m
21日17時 MSK ~ 21日19時 MSK に徐々に
風向・風速北北西 9m/s 瞬間風速 16m/s
TAF UUEE 202259Z 2100/2124 22007G14MPS 3100 -SN FEW006 OVC011 TXM00/2100Z TNM09/2124Z
TEMPO 2100/2104 1000 SHSN SCT004 BKN012CB
BECMG 2100/2102 28008G15MPS
TEMPO 2109/2124 1500 SHSN BLSN SCT004 BKN012CB
BECMG 2114/2116 34009G16MPS